createdAt,value
2017-12-05T00:00:47.836Z,0.00
2017-12-05T00:01:47.837Z,0.00
2017-12-05T00:02:47.825Z,0.00
2017-12-05T00:03:47.831Z,0.00
2017-12-05T00:04:47.823Z,0.00
2017-12-05T00:05:47.820Z,0.00
2017-12-05T00:06:47.822Z,0.00
2017-12-05T00:07:47.818Z,0.00
2017-12-05T00:08:47.815Z,0.00
2017-12-05T00:09:47.809Z,0.00
2017-12-05T00:10:47.814Z,0.00
2017-12-05T00:11:47.805Z,0.00
2017-12-05T00:12:47.798Z,0.00
2017-12-05T00:13:47.800Z,0.00
2017-12-05T00:14:47.797Z,0.00
2017-12-05T00:15:47.791Z,0.00
2017-12-05T00:16:47.791Z,0.00
2017-12-05T00:17:47.792Z,0.00
2017-12-05T00:18:47.791Z,0.00
2017-12-05T00:19:47.784Z,0.00
2017-12-05T00:20:47.790Z,0.00
2017-12-05T00:21:47.786Z,0.00
2017-12-05T00:22:47.779Z,0.00
2017-12-05T00:23:47.778Z,0.00
2017-12-05T00:24:47.774Z,0.00
2017-12-05T00:25:47.770Z,0.00
2017-12-05T00:26:47.769Z,0.00
2017-12-05T00:27:47.766Z,0.00
2017-12-05T00:28:47.765Z,0.00
2017-12-05T00:29:47.764Z,0.00
2017-12-05T00:30:47.762Z,0.00
2017-12-05T00:31:47.761Z,0.00
2017-12-05T00:32:47.762Z,0.00
2017-12-05T00:33:47.753Z,0.00
2017-12-05T00:34:47.751Z,0.00
2017-12-05T00:35:47.746Z,0.00
2017-12-05T00:36:47.747Z,0.00
2017-12-05T00:37:47.747Z,0.00
2017-12-05T00:38:47.738Z,0.00
2017-12-05T00:39:47.739Z,0.00
2017-12-05T00:40:47.740Z,0.00
2017-12-05T00:41:47.733Z,0.00
2017-12-05T00:42:47.736Z,0.00
2017-12-05T00:43:47.733Z,0.00
2017-12-05T00:44:47.736Z,0.00
2017-12-05T00:45:47.723Z,0.00
2017-12-05T00:46:47.723Z,0.00
2017-12-05T00:47:47.720Z,0.00
2017-12-05T00:48:47.717Z,0.00
2017-12-05T00:49:47.718Z,0.00
2017-12-05T00:50:47.709Z,0.00
2017-12-05T00:51:47.714Z,0.00
2017-12-05T00:52:47.710Z,0.00
2017-12-05T00:53:47.717Z,0.00
2017-12-05T00:54:47.702Z,0.00
2017-12-05T00:55:47.700Z,0.00
2017-12-05T00:56:47.703Z,0.00
2017-12-05T00:57:47.697Z,0.00
2017-12-05T00:58:47.695Z,0.00
2017-12-05T00:59:47.693Z,0.00
2017-12-05T01:00:47.690Z,0.00
2017-12-05T01:01:47.694Z,0.00
2017-12-05T01:02:47.686Z,0.00
2017-12-05T01:03:47.694Z,0.00
2017-12-05T01:04:47.681Z,0.00
2017-12-05T01:05:47.678Z,0.00
2017-12-05T01:06:47.681Z,0.00
2017-12-05T01:07:47.675Z,0.00
2017-12-05T01:08:47.675Z,0.00
2017-12-05T01:09:47.671Z,0.00
2017-12-05T01:10:47.673Z,0.00
2017-12-05T01:11:47.677Z,0.00
2017-12-05T01:12:47.664Z,0.00
2017-12-05T01:13:47.663Z,0.00
2017-12-05T01:14:47.663Z,0.00
2017-12-05T01:15:47.662Z,0.00
2017-12-05T01:16:47.660Z,0.00
2017-12-05T01:17:47.663Z,0.00
2017-12-05T01:18:47.654Z,0.00
2017-12-05T01:19:47.652Z,0.00
2017-12-05T01:20:47.650Z,0.00
2017-12-05T01:21:47.649Z,0.00
2017-12-05T01:22:47.649Z,0.00
2017-12-05T01:23:47.643Z,0.00
2017-12-05T01:24:47.640Z,0.00
2017-12-05T01:25:47.640Z,0.00
2017-12-05T01:26:47.640Z,0.00
2017-12-05T01:27:47.637Z,0.00
2017-12-05T01:28:47.636Z,0.00
2017-12-05T01:29:47.631Z,0.00
2017-12-05T01:30:47.634Z,0.00
2017-12-05T01:31:47.628Z,0.00
2017-12-05T01:32:47.626Z,0.00
2017-12-05T01:33:47.629Z,0.00
2017-12-05T01:34:47.620Z,0.00
2017-12-05T01:35:47.621Z,0.00
2017-12-05T01:36:47.622Z,0.00
2017-12-05T01:37:47.620Z,0.00
2017-12-05T01:38:47.620Z,0.00
2017-12-05T01:39:47.612Z,0.00
2017-12-05T01:40:47.610Z,0.00
2017-12-05T01:41:47.614Z,0.00
2017-12-05T01:42:47.612Z,0.00
2017-12-05T01:43:47.606Z,0.00
2017-12-05T01:44:47.607Z,0.00
2017-12-05T01:45:47.601Z,0.00
2017-12-05T01:46:47.605Z,0.00
2017-12-05T01:47:47.597Z,0.00
2017-12-05T01:48:47.597Z,0.00
2017-12-05T01:49:47.590Z,0.00
2017-12-05T01:50:47.591Z,0.00
2017-12-05T01:51:47.592Z,0.00
2017-12-05T01:52:47.591Z,0.00
2017-12-05T01:53:47.594Z,0.00
2017-12-05T01:54:47.583Z,0.00
2017-12-05T01:55:47.583Z,0.00
2017-12-05T01:56:47.582Z,0.00
2017-12-05T01:57:47.582Z,0.00
2017-12-05T01:58:47.582Z,0.00
2017-12-05T01:59:47.578Z,0.00
2017-12-05T02:00:47.572Z,0.00
2017-12-05T02:01:47.572Z,0.00
2017-12-05T02:02:47.570Z,0.00
2017-12-05T02:03:47.572Z,0.00
2017-12-05T02:04:47.572Z,0.00
2017-12-05T02:05:47.569Z,0.00
2017-12-05T02:06:47.568Z,0.00
2017-12-05T02:07:47.566Z,0.00
2017-12-05T02:08:47.568Z,0.00
2017-12-05T02:09:47.564Z,0.00
2017-12-05T02:10:47.553Z,0.00
2017-12-05T02:11:47.554Z,0.00
2017-12-05T02:12:47.564Z,0.00
2017-12-05T02:13:47.548Z,0.00
2017-12-05T02:14:47.548Z,0.00
2017-12-05T02:15:47.540Z,0.00
2017-12-05T02:16:47.543Z,0.00
2017-12-05T02:17:47.543Z,0.00
2017-12-05T02:18:47.540Z,0.00
2017-12-05T02:19:47.540Z,0.00
2017-12-05T02:20:47.537Z,0.00
2017-12-05T02:21:47.533Z,0.00
2017-12-05T02:22:47.531Z,0.00
2017-12-05T02:23:47.540Z,0.00
2017-12-05T02:24:47.532Z,0.00
2017-12-05T02:25:47.528Z,0.00
2017-12-05T02:26:47.521Z,0.00
2017-12-05T02:27:47.563Z,0.00
2017-12-05T02:28:47.520Z,0.00
2017-12-05T02:29:47.525Z,0.00
2017-12-05T02:30:47.518Z,0.00
2017-12-05T02:31:47.518Z,0.00
2017-12-05T02:32:47.512Z,0.00
2017-12-05T02:33:47.516Z,0.00
2017-12-05T02:34:47.512Z,0.00
2017-12-05T02:35:47.518Z,0.00
2017-12-05T02:36:47.507Z,0.00
2017-12-05T02:37:47.503Z,0.00
2017-12-05T02:38:47.502Z,0.00
2017-12-05T02:39:47.502Z,0.00
2017-12-05T02:40:47.496Z,0.00
2017-12-05T02:41:47.499Z,0.00
2017-12-05T02:42:47.498Z,0.00
2017-12-05T02:43:47.493Z,0.00
2017-12-05T02:44:47.490Z,0.00
2017-12-05T02:45:47.491Z,0.00
2017-12-05T02:46:47.485Z,0.00
2017-12-05T02:47:47.490Z,0.00
2017-12-05T02:48:47.491Z,0.00
2017-12-05T02:49:47.485Z,0.00
2017-12-05T02:50:47.553Z,0.00
2017-12-05T02:51:47.480Z,0.00
2017-12-05T02:52:47.486Z,0.00
2017-12-05T02:53:47.481Z,0.00
2017-12-05T02:54:47.476Z,0.00
2017-12-05T02:55:47.470Z,0.00
2017-12-05T02:56:47.477Z,0.00
2017-12-05T02:57:47.469Z,0.00
2017-12-05T02:58:47.471Z,0.00
2017-12-05T02:59:47.472Z,0.00
2017-12-05T03:00:47.467Z,0.00
2017-12-05T03:01:47.463Z,0.00
2017-12-05T03:02:47.464Z,0.00
2017-12-05T03:03:47.465Z,0.00
2017-12-05T03:04:47.455Z,0.00
2017-12-05T03:05:47.453Z,0.00
2017-12-05T03:06:47.455Z,0.00
2017-12-05T03:07:47.455Z,0.00
2017-12-05T03:08:47.450Z,0.00
2017-12-05T03:09:47.450Z,0.00
2017-12-05T03:10:47.447Z,0.00
2017-12-05T03:11:47.449Z,0.00
2017-12-05T03:12:47.445Z,0.00
2017-12-05T03:13:47.442Z,0.00
2017-12-05T03:14:47.438Z,0.00
2017-12-05T03:15:47.446Z,0.00
2017-12-05T03:16:47.441Z,0.00
2017-12-05T03:17:47.435Z,0.00
2017-12-05T03:18:47.431Z,0.00
2017-12-05T03:19:47.430Z,0.00
2017-12-05T03:20:47.437Z,0.00
2017-12-05T03:21:47.426Z,0.00
2017-12-05T03:22:47.431Z,0.00
2017-12-05T03:23:47.426Z,0.00
2017-12-05T03:24:47.424Z,0.00
2017-12-05T03:25:47.425Z,0.00
2017-12-05T03:26:47.418Z,0.00
2017-12-05T03:27:47.426Z,0.00
2017-12-05T03:28:47.422Z,0.00
2017-12-05T03:29:47.427Z,0.00
2017-12-05T03:30:47.414Z,0.00
2017-12-05T03:31:47.413Z,0.00
2017-12-05T03:32:47.411Z,0.00
2017-12-05T03:33:47.410Z,0.00
2017-12-05T03:34:47.411Z,0.00
2017-12-05T03:35:47.404Z,0.00
2017-12-05T03:36:47.404Z,0.00
2017-12-05T03:37:47.403Z,0.00
2017-12-05T03:38:47.402Z,0.00
2017-12-05T03:39:47.399Z,0.00
2017-12-05T03:40:47.400Z,0.00
2017-12-05T03:41:47.403Z,0.00
2017-12-05T03:42:47.397Z,0.00
2017-12-05T03:43:47.391Z,0.00
2017-12-05T03:44:47.395Z,0.00
2017-12-05T03:45:47.390Z,0.00
2017-12-05T03:46:47.388Z,0.00
2017-12-05T03:47:47.389Z,0.00
2017-12-05T03:48:47.391Z,0.00
2017-12-05T03:49:47.391Z,0.00
2017-12-05T03:50:47.382Z,0.00
2017-12-05T03:51:47.380Z,0.00
2017-12-05T03:52:47.376Z,0.00
2017-12-05T03:53:47.375Z,0.00
2017-12-05T03:54:47.376Z,0.00
2017-12-05T03:55:47.377Z,0.00
2017-12-05T03:56:47.377Z,0.00
2017-12-05T03:57:47.372Z,0.00
2017-12-05T03:58:47.368Z,0.00
2017-12-05T03:59:47.373Z,0.00
2017-12-05T04:00:47.369Z,0.00
2017-12-05T04:01:47.370Z,0.00
2017-12-05T04:02:47.363Z,0.00
2017-12-05T04:03:47.360Z,0.00
2017-12-05T04:04:47.359Z,0.00
2017-12-05T04:05:47.361Z,0.00
2017-12-05T04:06:47.362Z,0.00
2017-12-05T04:07:47.354Z,0.00
2017-12-05T04:08:47.354Z,0.00
2017-12-05T04:09:47.353Z,0.00
2017-12-05T04:10:47.351Z,0.00
2017-12-05T04:11:47.351Z,0.00
2017-12-05T04:12:47.347Z,0.00
2017-12-05T04:13:47.350Z,0.00
2017-12-05T04:14:47.343Z,0.00
2017-12-05T04:15:47.341Z,0.00
2017-12-05T04:16:47.345Z,0.00
2017-12-05T04:17:47.341Z,0.00
2017-12-05T04:18:47.344Z,0.00
2017-12-05T04:19:47.340Z,0.00
2017-12-05T04:20:47.341Z,0.00
2017-12-05T04:21:47.340Z,0.00
2017-12-05T04:22:47.331Z,0.00
2017-12-05T04:23:47.332Z,0.00
2017-12-05T04:24:47.334Z,0.00
2017-12-05T04:25:47.326Z,0.00
2017-12-05T04:26:47.325Z,0.00
2017-12-05T04:27:47.327Z,0.00
2017-12-05T04:28:47.321Z,0.00
2017-12-05T04:29:47.320Z,0.00
2017-12-05T04:30:47.318Z,0.00
2017-12-05T04:31:47.326Z,0.00
2017-12-05T04:32:47.318Z,0.00
2017-12-05T04:33:47.321Z,0.00
2017-12-05T04:34:47.310Z,0.00
2017-12-05T04:35:47.316Z,0.00
2017-12-05T04:36:47.311Z,0.00
2017-12-05T04:37:47.312Z,0.00
2017-12-05T04:38:47.303Z,0.00
2017-12-05T04:39:47.302Z,0.00
2017-12-05T04:40:47.302Z,0.00
2017-12-05T04:41:47.305Z,0.00
2017-12-05T04:42:47.301Z,0.00
2017-12-05T04:43:47.299Z,0.00
2017-12-05T04:44:47.300Z,0.00
2017-12-05T04:45:47.299Z,0.00
2017-12-05T04:46:47.294Z,0.00
2017-12-05T04:47:47.292Z,0.00
2017-12-05T04:48:47.290Z,0.00
2017-12-05T04:49:47.288Z,0.00
2017-12-05T04:50:47.293Z,0.00
2017-12-05T04:51:47.293Z,0.00
2017-12-05T04:52:47.289Z,0.00
2017-12-05T04:53:47.282Z,0.00
2017-12-05T04:54:47.375Z,0.00
2017-12-05T04:55:47.276Z,0.00
2017-12-05T04:56:47.283Z,0.00
2017-12-05T04:57:47.273Z,0.00
2017-12-05T04:58:47.301Z,0.00
2017-12-05T04:59:47.274Z,0.00
2017-12-05T05:00:47.270Z,0.00
2017-12-05T05:01:47.270Z,0.00
2017-12-05T05:02:47.267Z,0.00
2017-12-05T05:03:47.269Z,0.00
2017-12-05T05:04:47.269Z,0.00
2017-12-05T05:05:47.265Z,0.00
2017-12-05T05:06:47.260Z,0.00
2017-12-05T05:07:47.259Z,0.00
2017-12-05T05:08:47.259Z,0.00
2017-12-05T05:09:47.254Z,0.00
2017-12-05T05:10:47.260Z,0.00
2017-12-05T05:11:47.252Z,0.00
2017-12-05T05:12:47.252Z,0.00
2017-12-05T05:13:47.253Z,0.00
2017-12-05T05:14:47.247Z,0.00
2017-12-05T05:15:47.248Z,0.00
2017-12-05T05:16:47.247Z,0.00
2017-12-05T05:17:47.247Z,0.00
2017-12-05T05:18:47.240Z,0.00
2017-12-05T05:19:47.247Z,0.00
2017-12-05T05:20:47.240Z,0.00
2017-12-05T05:21:47.235Z,0.00
2017-12-05T05:22:47.239Z,0.00
2017-12-05T05:23:47.237Z,0.00
2017-12-05T05:24:47.231Z,0.00
2017-12-05T05:25:47.354Z,0.00
2017-12-05T05:26:47.285Z,0.00
2017-12-05T05:27:47.233Z,0.00
2017-12-05T05:28:47.230Z,0.00
2017-12-05T05:29:47.231Z,0.00
2017-12-05T05:30:47.222Z,0.00
2017-12-05T05:31:47.219Z,0.00
2017-12-05T05:32:47.216Z,0.00
2017-12-05T05:33:47.217Z,0.00
2017-12-05T05:34:47.220Z,0.00
2017-12-05T05:35:47.209Z,0.00
2017-12-05T05:36:47.217Z,0.00
2017-12-05T05:37:47.216Z,0.00
2017-12-05T05:38:47.212Z,0.00
2017-12-05T05:39:47.340Z,0.00
2017-12-05T05:40:47.235Z,0.00
2017-12-05T05:41:47.207Z,0.00
2017-12-05T05:42:47.199Z,0.00
2017-12-05T05:43:47.204Z,0.00
2017-12-05T05:44:47.258Z,0.00
2017-12-05T05:45:47.202Z,0.00
2017-12-05T05:46:47.196Z,0.00
2017-12-05T05:47:47.193Z,0.00
2017-12-05T05:48:47.193Z,0.00
2017-12-05T05:49:47.189Z,0.00
2017-12-05T05:50:47.188Z,0.00
2017-12-05T05:51:47.334Z,0.00
2017-12-05T05:52:47.191Z,0.00
2017-12-05T05:53:47.192Z,0.00
2017-12-05T05:54:47.190Z,0.00
2017-12-05T05:55:47.190Z,0.00
2017-12-05T05:56:47.188Z,0.00
2017-12-05T05:57:47.190Z,0.00
2017-12-05T05:58:47.324Z,0.00
2017-12-05T05:59:47.185Z,0.00
2017-12-05T06:00:47.287Z,0.00
2017-12-05T06:01:47.179Z,0.00
2017-12-05T06:02:47.171Z,0.00
2017-12-05T06:03:47.170Z,0.00
2017-12-05T06:04:47.170Z,0.00
2017-12-05T06:05:47.225Z,0.00
2017-12-05T06:06:47.316Z,0.00
2017-12-05T06:07:47.212Z,0.00
2017-12-05T06:08:47.168Z,0.00
2017-12-05T06:09:47.172Z,0.00
2017-12-05T06:10:47.162Z,0.00
2017-12-05T06:11:47.156Z,0.00
2017-12-05T06:12:47.161Z,0.00
2017-12-05T06:13:47.166Z,0.00
2017-12-05T06:14:47.162Z,0.00
2017-12-05T06:15:47.150Z,0.00
2017-12-05T06:16:47.309Z,0.00
2017-12-05T06:17:47.154Z,0.00
2017-12-05T06:18:47.882Z,0.00
2017-12-05T06:19:47.172Z,0.00
2017-12-05T06:20:47.159Z,0.00
2017-12-05T06:21:47.152Z,0.00
2017-12-05T06:22:47.150Z,0.00
2017-12-05T06:23:47.147Z,0.00
2017-12-05T06:24:47.141Z,0.00
2017-12-05T06:25:47.143Z,0.00
2017-12-05T06:26:47.140Z,0.00
2017-12-05T06:27:47.139Z,0.00
2017-12-05T06:28:47.136Z,0.00
2017-12-05T06:29:47.140Z,0.00
2017-12-05T06:30:47.140Z,0.00
2017-12-05T06:31:47.141Z,0.00
2017-12-05T06:32:47.138Z,0.00
2017-12-05T06:33:47.130Z,0.00
2017-12-05T06:34:47.135Z,0.00
2017-12-05T06:35:47.131Z,0.00
2017-12-05T06:36:47.132Z,0.00
2017-12-05T06:37:47.124Z,0.00
2017-12-05T06:38:47.123Z,0.00
2017-12-05T06:39:47.122Z,0.00
2017-12-05T06:40:47.120Z,0.00
2017-12-05T06:41:47.121Z,0.00
2017-12-05T06:42:47.118Z,0.00
2017-12-05T06:43:47.120Z,0.00
2017-12-05T06:44:47.116Z,0.00
2017-12-05T06:45:47.119Z,0.00
2017-12-05T06:46:47.112Z,0.00
2017-12-05T06:47:47.125Z,0.00
2017-12-05T06:48:47.109Z,4.00
2017-12-05T06:49:47.206Z,0.00
2017-12-05T06:50:47.262Z,4.00
2017-12-05T06:51:47.116Z,0.00
2017-12-05T06:52:47.110Z,4.00
2017-12-05T06:53:47.216Z,4.00
2017-12-05T06:54:47.118Z,8.00
2017-12-05T06:55:47.137Z,4.00
2017-12-05T06:56:47.104Z,4.00
2017-12-05T06:57:47.100Z,8.00
2017-12-05T06:58:47.102Z,8.00
2017-12-05T06:59:47.095Z,12.00
2017-12-05T07:00:47.099Z,12.00
2017-12-05T07:01:47.096Z,12.00
2017-12-05T07:02:47.095Z,16.00
2017-12-05T07:03:47.095Z,16.00
2017-12-05T07:04:47.093Z,16.00
2017-12-05T07:05:47.089Z,20.00
2017-12-05T07:06:47.095Z,24.00
2017-12-05T07:07:47.095Z,24.00
2017-12-05T07:08:47.091Z,32.00
2017-12-05T07:09:47.092Z,28.00
2017-12-05T07:10:47.083Z,32.00
2017-12-05T07:11:47.082Z,32.00
2017-12-05T07:12:47.080Z,32.00
2017-12-05T07:13:47.080Z,32.00
2017-12-05T07:14:47.080Z,32.00
2017-12-05T07:15:47.079Z,32.00
2017-12-05T07:16:47.077Z,32.00
2017-12-05T07:17:47.073Z,36.00
2017-12-05T07:18:47.074Z,36.00
2017-12-05T07:19:47.083Z,36.00
2017-12-05T07:20:47.073Z,44.00
2017-12-05T07:21:47.110Z,44.00
2017-12-05T07:22:47.076Z,48.00
2017-12-05T07:23:47.070Z,52.00
2017-12-05T07:24:47.072Z,64.00
2017-12-05T07:27:20.019Z,84.00
2017-12-05T07:28:20.115Z,104.00
2017-12-05T07:29:19.982Z,112.00
2017-12-05T07:30:19.988Z,120.00
2017-12-05T07:31:19.976Z,120.00
2017-12-05T07:32:19.978Z,132.00
2017-12-05T07:33:19.973Z,140.00
2017-12-05T07:34:19.980Z,144.00
2017-12-05T07:35:19.970Z,164.00
2017-12-05T07:36:19.972Z,152.00
2017-12-05T07:37:19.970Z,132.00
2017-12-05T07:38:19.966Z,136.00
2017-12-05T07:39:19.968Z,132.00
2017-12-05T07:40:19.977Z,132.00
2017-12-05T07:41:19.968Z,144.00
2017-12-05T07:42:19.964Z,144.00
2017-12-05T07:43:19.966Z,132.00
2017-12-05T07:44:19.959Z,128.00
2017-12-05T07:45:20.015Z,152.00
2017-12-05T07:46:20.012Z,172.00
2017-12-05T07:47:19.957Z,148.00
2017-12-05T07:48:19.960Z,120.00
2017-12-05T07:49:19.955Z,104.00
2017-12-05T07:50:19.954Z,100.00
2017-12-05T07:51:19.948Z,108.00
2017-12-05T07:52:19.963Z,108.00
2017-12-05T07:53:19.954Z,108.00
2017-12-05T07:54:19.951Z,108.00
2017-12-05T07:55:19.944Z,124.00
2017-12-05T07:56:19.945Z,136.00
2017-12-05T07:57:19.942Z,156.00
2017-12-05T07:58:19.940Z,184.00
2017-12-05T07:59:19.939Z,236.00
2017-12-05T08:00:19.940Z,268.00
2017-12-05T08:01:19.939Z,292.00
2017-12-05T08:02:19.934Z,272.00
2017-12-05T08:03:19.964Z,308.00
2017-12-05T08:04:19.938Z,356.00
2017-12-05T08:05:19.942Z,376.00
2017-12-05T08:06:19.932Z,372.00
2017-12-05T08:07:19.930Z,332.00
2017-12-05T08:08:19.926Z,312.00
2017-12-05T08:09:19.942Z,276.00
2017-12-05T08:10:19.924Z,296.00
2017-12-05T08:11:19.924Z,312.00
2017-12-05T08:12:19.921Z,264.00
2017-12-05T08:13:19.923Z,264.00
2017-12-05T08:14:19.920Z,272.00
2017-12-05T08:15:19.915Z,300.00
2017-12-05T08:16:19.913Z,304.00
2017-12-05T08:17:20.180Z,328.00
2017-12-05T08:18:19.912Z,332.00
2017-12-05T08:19:19.911Z,288.00
2017-12-05T08:20:19.913Z,284.00
2017-12-05T08:21:19.909Z,284.00
2017-12-05T08:22:19.905Z,324.00
2017-12-05T08:23:19.905Z,316.00
2017-12-05T08:24:19.905Z,332.00
2017-12-05T08:25:19.918Z,272.00
2017-12-05T08:26:19.903Z,340.00
2017-12-05T08:27:19.899Z,372.00
2017-12-05T08:28:19.897Z,388.00
2017-12-05T08:29:19.897Z,392.00
2017-12-05T08:30:19.893Z,416.00
2017-12-05T08:31:19.895Z,592.00
2017-12-05T08:32:19.894Z,676.00
2017-12-05T08:33:19.893Z,640.00
2017-12-05T08:34:19.890Z,500.00
2017-12-05T08:35:19.893Z,492.00
2017-12-05T08:36:19.891Z,496.00
2017-12-05T08:37:19.885Z,412.00
2017-12-05T08:38:19.881Z,408.00
2017-12-05T08:39:19.884Z,412.00
2017-12-05T08:40:19.889Z,392.00
2017-12-05T08:41:19.876Z,376.00
2017-12-05T08:42:19.879Z,472.00
2017-12-05T08:43:19.881Z,408.00
2017-12-05T08:44:19.879Z,368.00
2017-12-05T08:45:19.880Z,404.00
2017-12-05T08:46:19.886Z,460.00
2017-12-05T08:47:19.869Z,536.00
2017-12-05T08:48:19.879Z,528.00
2017-12-05T08:49:19.874Z,476.00
2017-12-05T08:50:19.871Z,428.00
2017-12-05T08:51:19.874Z,468.00
2017-12-05T08:52:19.869Z,608.00
2017-12-05T08:53:19.865Z,496.00
2017-12-05T08:54:19.861Z,436.00
2017-12-05T08:55:19.860Z,428.00
2017-12-05T08:56:19.861Z,652.00
2017-12-05T08:57:19.860Z,648.00
2017-12-05T08:58:19.855Z,628.00
2017-12-05T08:59:19.856Z,680.00
2017-12-05T09:00:19.867Z,732.00
2017-12-05T09:01:19.858Z,940.00
2017-12-05T09:02:19.858Z,928.00
2017-12-05T09:03:19.851Z,1068.00
2017-12-05T09:04:19.862Z,1160.00
2017-12-05T09:05:19.854Z,1052.00
2017-12-05T09:06:19.846Z,948.00
2017-12-05T09:07:19.843Z,904.00
2017-12-05T09:08:19.850Z,940.00
2017-12-05T09:09:19.843Z,796.00
2017-12-05T09:10:19.843Z,776.00
2017-12-05T09:11:19.843Z,672.00
2017-12-05T09:12:19.843Z,688.00
2017-12-05T09:13:19.837Z,692.00
2017-12-05T09:14:19.836Z,680.00
2017-12-05T09:15:19.830Z,620.00
2017-12-05T09:16:19.831Z,516.00
2017-12-05T09:17:19.831Z,440.00
2017-12-05T09:18:19.840Z,444.00
2017-12-05T09:19:19.829Z,420.00
2017-12-05T09:20:19.830Z,572.00
2017-12-05T09:21:19.832Z,744.00
2017-12-05T09:22:19.825Z,808.00
2017-12-05T09:23:19.835Z,828.00
2017-12-05T09:24:19.824Z,756.00
2017-12-05T09:25:19.824Z,704.00
2017-12-05T09:26:19.824Z,760.00
2017-12-05T09:27:19.824Z,748.00
2017-12-05T09:28:19.816Z,788.00
2017-12-05T09:29:19.817Z,800.00
2017-12-05T09:30:19.822Z,960.00
2017-12-05T09:31:19.812Z,1108.00
2017-12-05T09:32:19.821Z,1112.00
2017-12-05T09:33:19.808Z,1156.00
2017-12-05T09:34:19.809Z,1508.00
2017-12-05T09:35:19.807Z,1424.00
2017-12-05T09:36:19.813Z,1300.00
2017-12-05T09:37:19.811Z,1380.00
2017-12-05T09:38:19.803Z,1548.00
2017-12-05T09:39:19.804Z,1564.00
2017-12-05T09:40:19.802Z,1648.00
2017-12-05T09:41:19.805Z,1708.00
2017-12-05T09:42:19.803Z,1728.00
2017-12-05T09:43:19.802Z,1736.00
2017-12-05T09:44:19.803Z,1748.00
2017-12-05T09:45:19.797Z,1804.00
2017-12-05T09:46:19.798Z,1736.00
2017-12-05T09:47:19.798Z,1532.00
2017-12-05T09:48:19.791Z,1620.00
2017-12-05T09:49:19.793Z,1836.00
2017-12-05T09:50:19.798Z,2296.00
2017-12-05T09:51:19.792Z,2524.00
2017-12-05T09:52:19.791Z,2716.00
2017-12-05T09:53:19.791Z,2764.00
2017-12-05T09:54:19.794Z,2896.00
2017-12-05T09:55:19.791Z,3096.00
2017-12-05T09:56:19.787Z,3364.00
2017-12-05T09:57:19.812Z,3104.00
2017-12-05T09:58:19.785Z,2840.00
2017-12-05T09:59:19.781Z,2516.00
2017-12-05T10:00:19.781Z,2536.00
2017-12-05T10:01:19.778Z,2568.00
2017-12-05T10:02:19.782Z,2500.00
2017-12-05T10:03:19.783Z,2696.00
2017-12-05T10:04:19.777Z,2888.00
2017-12-05T10:05:19.778Z,3204.00
2017-12-05T10:06:19.778Z,3076.00
2017-12-05T10:07:19.782Z,2732.00
2017-12-05T10:08:19.769Z,3144.00
2017-12-05T10:09:19.769Z,2780.00
2017-12-05T10:10:19.784Z,2476.00
2017-12-05T10:11:19.774Z,2528.00
2017-12-05T10:12:19.768Z,2332.00
2017-12-05T10:13:19.770Z,2380.00
2017-12-05T10:14:19.771Z,1776.00
2017-12-05T10:15:19.766Z,1604.00
2017-12-05T10:16:19.767Z,1696.00
2017-12-05T10:17:19.764Z,1484.00
2017-12-05T10:18:19.761Z,1704.00
2017-12-05T10:19:19.767Z,2016.00
2017-12-05T10:20:19.769Z,1860.00
2017-12-05T10:21:19.765Z,1792.00
2017-12-05T10:22:19.765Z,1896.00
2017-12-05T10:23:19.757Z,1912.00
2017-12-05T10:24:19.760Z,2172.00
2017-12-05T10:25:19.758Z,2264.00
2017-12-05T10:26:19.755Z,2076.00
2017-12-05T10:27:19.758Z,1820.00
2017-12-05T10:28:19.755Z,1472.00
2017-12-05T10:29:19.762Z,1480.00
2017-12-05T10:30:19.762Z,1644.00
2017-12-05T10:31:19.751Z,1604.00
2017-12-05T10:32:19.762Z,1584.00
2017-12-05T10:33:19.752Z,1356.00
2017-12-05T10:34:19.754Z,1568.00
2017-12-05T10:35:19.769Z,1472.00
2017-12-05T10:36:19.750Z,1356.00
2017-12-05T10:37:19.753Z,1364.00
2017-12-05T10:38:19.753Z,1316.00
2017-12-05T10:39:19.746Z,1372.00
2017-12-05T10:40:19.745Z,1504.00
2017-12-05T10:41:19.746Z,1468.00
2017-12-05T10:42:19.747Z,1612.00
2017-12-05T10:43:19.750Z,1688.00
2017-12-05T10:44:19.746Z,1764.00
2017-12-05T10:45:19.741Z,1752.00
2017-12-05T10:46:19.744Z,2000.00
2017-12-05T10:47:19.742Z,1776.00
2017-12-05T10:48:19.740Z,1928.00
2017-12-05T10:49:19.739Z,2064.00
2017-12-05T10:50:19.740Z,2184.00
2017-12-05T10:51:19.744Z,2504.00
2017-12-05T10:52:19.740Z,2672.00
2017-12-05T10:53:19.762Z,2940.00
2017-12-05T10:54:19.732Z,2964.00
2017-12-05T10:55:19.735Z,2952.00
2017-12-05T10:56:19.734Z,2716.00
2017-12-05T10:57:19.732Z,2380.00
2017-12-05T10:58:19.738Z,2160.00
2017-12-05T10:59:19.731Z,2120.00
2017-12-05T11:00:19.732Z,1824.00
2017-12-05T11:01:19.729Z,1672.00
2017-12-05T11:02:19.737Z,1804.00
2017-12-05T11:03:19.728Z,1664.00
2017-12-05T11:04:19.736Z,1756.00
2017-12-05T11:05:19.734Z,1404.00
2017-12-05T11:06:19.731Z,1092.00
2017-12-05T11:07:19.724Z,1044.00
2017-12-05T11:08:19.730Z,1064.00
2017-12-05T11:09:19.727Z,876.00
2017-12-05T11:10:19.726Z,1024.00
2017-12-05T11:11:19.721Z,1180.00
2017-12-05T11:12:19.723Z,1436.00
2017-12-05T11:13:19.719Z,1268.00
2017-12-05T11:14:19.720Z,1440.00
2017-12-05T11:15:19.721Z,1368.00
2017-12-05T11:16:19.721Z,1248.00
2017-12-05T11:17:19.721Z,1320.00
2017-12-05T11:18:19.715Z,1540.00
2017-12-05T11:19:19.722Z,1968.00
2017-12-05T11:20:19.720Z,1880.00
2017-12-05T11:21:19.718Z,1536.00
2017-12-05T11:22:19.716Z,1272.00
2017-12-05T11:23:19.716Z,1268.00
2017-12-05T11:24:19.713Z,1256.00
2017-12-05T11:25:19.724Z,1452.00
2017-12-05T11:26:19.711Z,1592.00
2017-12-05T11:27:19.712Z,1848.00
2017-12-05T11:28:19.711Z,1916.00
2017-12-05T11:29:19.711Z,1896.00
2017-12-05T11:30:19.710Z,1412.00
2017-12-05T11:31:19.710Z,1468.00
2017-12-05T11:32:19.710Z,1664.00
2017-12-05T11:33:19.712Z,1708.00
2017-12-05T11:34:19.706Z,1440.00
2017-12-05T11:35:19.704Z,1224.00
2017-12-05T11:36:19.705Z,1116.00
2017-12-05T11:37:19.714Z,1016.00
2017-12-05T11:38:19.713Z,1160.00
2017-12-05T11:39:19.706Z,1236.00
2017-12-05T11:40:19.711Z,1352.00
2017-12-05T11:41:19.709Z,1636.00
2017-12-05T11:42:19.699Z,1720.00
2017-12-05T11:43:19.706Z,1596.00
2017-12-05T11:44:19.698Z,1464.00
2017-12-05T11:45:19.698Z,1356.00
2017-12-05T11:46:19.694Z,1372.00
2017-12-05T11:47:19.702Z,1380.00
2017-12-05T11:48:19.701Z,1400.00
2017-12-05T11:49:19.700Z,1380.00
2017-12-05T11:50:19.691Z,1408.00
2017-12-05T11:51:19.691Z,1728.00
2017-12-05T11:52:19.691Z,1936.00
2017-12-05T11:53:19.695Z,2184.00
2017-12-05T11:54:19.689Z,2500.00
2017-12-05T11:55:19.690Z,2360.00
2017-12-05T11:56:19.692Z,2212.00
2017-12-05T11:57:19.695Z,1672.00
2017-12-05T11:58:19.686Z,1312.00
2017-12-05T11:59:19.686Z,1232.00
2017-12-05T12:00:19.694Z,1300.00
2017-12-05T12:01:19.683Z,1244.00
2017-12-05T12:02:19.682Z,1340.00
2017-12-05T12:03:19.682Z,1276.00
2017-12-05T12:04:19.679Z,1136.00
2017-12-05T12:05:19.687Z,1040.00
2017-12-05T12:06:19.680Z,1152.00
2017-12-05T12:07:19.680Z,912.00
2017-12-05T12:08:19.691Z,780.00
2017-12-05T12:09:19.680Z,700.00
2017-12-05T12:10:19.676Z,724.00
2017-12-05T12:11:19.680Z,660.00
2017-12-05T12:12:19.678Z,608.00
2017-12-05T12:13:19.674Z,656.00
2017-12-05T12:14:19.672Z,608.00
2017-12-05T12:15:19.672Z,604.00
2017-12-05T12:16:19.674Z,680.00
2017-12-05T12:17:19.673Z,616.00
2017-12-05T12:18:19.678Z,588.00
2017-12-05T12:19:19.671Z,604.00
2017-12-05T12:20:19.667Z,632.00
2017-12-05T12:21:19.667Z,588.00
2017-12-05T12:22:19.670Z,612.00
2017-12-05T12:23:19.675Z,496.00
2017-12-05T12:24:19.669Z,440.00
2017-12-05T12:25:19.663Z,456.00
2017-12-05T12:26:19.662Z,508.00
2017-12-05T12:28:51.785Z,576.00
2017-12-05T12:29:51.733Z,580.00
2017-12-05T12:30:51.734Z,784.00
2017-12-05T12:31:51.742Z,872.00
2017-12-05T12:32:51.740Z,712.00
2017-12-05T12:33:51.725Z,892.00
2017-12-05T12:34:51.730Z,1152.00
2017-12-05T12:35:51.727Z,1076.00
2017-12-05T12:36:51.726Z,1124.00
2017-12-05T12:37:51.728Z,1148.00
2017-12-05T12:38:51.739Z,1228.00
2017-12-05T12:39:51.722Z,1416.00
2017-12-05T12:40:51.726Z,1392.00
2017-12-05T12:41:51.725Z,1440.00
2017-12-05T12:42:51.722Z,1660.00
2017-12-05T12:43:51.722Z,1588.00
2017-12-05T12:44:51.720Z,1640.00
2017-12-05T12:45:51.719Z,1860.00
2017-12-05T12:46:51.725Z,1872.00
2017-12-05T12:47:51.730Z,1748.00
2017-12-05T12:48:51.722Z,1764.00
2017-12-05T12:49:51.721Z,1720.00
2017-12-05T12:50:51.715Z,1544.00
2017-12-05T12:51:51.715Z,1380.00
2017-12-05T12:52:51.714Z,1104.00
2017-12-05T12:53:51.714Z,888.00